createdAt,value
2022-12-28T00:02:03.142Z,100.00
2022-12-28T00:05:04.912Z,100.00
2022-12-28T00:08:06.444Z,100.00
2022-12-28T00:11:18.667Z,100.00
2022-12-28T00:14:25.934Z,100.00
2022-12-28T00:17:27.617Z,100.00
2022-12-28T00:20:29.137Z,100.00
2022-12-28T00:23:30.955Z,100.00
2022-12-28T00:26:33.503Z,100.00
2022-12-28T00:29:35.028Z,100.00
2022-12-28T00:32:36.553Z,100.00
2022-12-28T00:35:38.084Z,100.00
2022-12-28T00:38:39.764Z,100.00
2022-12-28T00:41:41.288Z,100.00
2022-12-28T00:44:42.825Z,100.00
2022-12-28T00:47:44.364Z,100.00
2022-12-28T00:50:45.892Z,100.00
2022-12-28T00:53:47.494Z,100.00
2022-12-28T00:56:49.019Z,100.00
2022-12-28T00:59:50.575Z,100.00
2022-12-28T01:02:52.135Z,100.00
2022-12-28T01:05:54.701Z,100.00
2022-12-28T01:08:56.240Z,100.00
2022-12-28T01:11:57.767Z,100.00
2022-12-28T01:14:59.359Z,100.00
2022-12-28T01:18:01.138Z,100.00
2022-12-28T01:21:24.618Z,100.00
2022-12-28T01:24:26.178Z,100.00
2022-12-28T01:27:27.684Z,100.00
2022-12-28T01:30:30.456Z,100.00
2022-12-28T01:33:31.877Z,100.00
2022-12-28T01:36:35.037Z,100.00
2022-12-28T01:39:36.583Z,100.00
2022-12-28T01:42:38.551Z,100.00
2022-12-28T01:45:40.096Z,100.00
2022-12-28T01:48:46.111Z,100.00
2022-12-28T01:52:00.191Z,100.00
2022-12-28T01:55:14.210Z,100.00
2022-12-28T01:58:19.454Z,100.00
2022-12-28T02:01:21.044Z,100.00
2022-12-28T02:04:22.639Z,100.00
2022-12-28T02:07:35.681Z,100.00
2022-12-28T02:10:42.683Z,100.00
2022-12-28T02:13:48.028Z,100.00
2022-12-28T02:16:49.525Z,100.00
2022-12-28T02:19:51.103Z,100.00
2022-12-28T02:23:16.224Z,100.00
2022-12-28T02:26:31.862Z,100.00
2022-12-28T02:29:40.776Z,100.00
2022-12-28T02:33:10.741Z,100.00
2022-12-28T02:36:18.696Z,100.00
2022-12-28T02:39:25.915Z,100.00
2022-12-28T02:42:27.459Z,100.00
2022-12-28T02:46:03.841Z,100.00
2022-12-28T02:49:37.407Z,100.00
2022-12-28T02:52:46.768Z,100.00
2022-12-28T02:56:18.066Z,100.00
2022-12-28T02:59:38.998Z,100.00
2022-12-28T03:02:43.601Z,100.00
2022-12-28T03:06:06.837Z,100.00
2022-12-28T03:09:18.037Z,100.00
2022-12-28T03:12:40.719Z,100.00
2022-12-28T03:15:42.228Z,100.00
2022-12-28T03:19:02.639Z,100.00
2022-12-28T03:22:22.731Z,100.00
2022-12-28T03:25:44.736Z,100.00
2022-12-28T03:29:04.896Z,100.00
2022-12-28T03:32:06.470Z,100.00
2022-12-28T03:35:08.304Z,100.00
2022-12-28T03:38:10.994Z,100.00
2022-12-28T03:41:20.525Z,100.00
2022-12-28T03:44:24.630Z,100.00
2022-12-28T03:47:26.181Z,100.00
2022-12-28T03:50:27.700Z,100.00
2022-12-28T03:53:35.987Z,100.00
2022-12-28T03:56:37.568Z,100.00
2022-12-28T03:59:39.067Z,100.00
2022-12-28T04:02:40.640Z,100.00
2022-12-28T04:05:42.207Z,100.00
2022-12-28T04:08:44.448Z,100.00
2022-12-28T04:11:45.997Z,100.00
2022-12-28T04:14:47.513Z,100.00
2022-12-28T04:17:49.043Z,100.00
2022-12-28T04:20:50.576Z,100.00
2022-12-28T04:23:52.171Z,100.00
2022-12-28T04:26:53.781Z,100.00
2022-12-28T04:29:55.433Z,100.00
2022-12-28T04:32:57.001Z,100.00
2022-12-28T04:36:08.965Z,100.00
2022-12-28T04:39:10.552Z,100.00
2022-12-28T04:42:12.062Z,100.00
2022-12-28T04:45:20.054Z,100.00
2022-12-28T04:48:23.600Z,100.00
2022-12-28T04:51:26.190Z,100.00
2022-12-28T04:54:27.746Z,100.00
2022-12-28T04:57:29.286Z,100.00
2022-12-28T05:00:30.859Z,100.00
2022-12-28T05:03:32.512Z,100.00
2022-12-28T05:06:34.888Z,100.00
2022-12-28T05:09:36.376Z,100.00
2022-12-28T05:12:37.902Z,100.00
2022-12-28T05:15:39.448Z,100.00
2022-12-28T05:18:40.995Z,100.00
2022-12-28T05:21:42.511Z,100.00
2022-12-28T05:24:44.055Z,100.00
2022-12-28T05:27:45.588Z,100.00
2022-12-28T05:30:47.091Z,100.00
2022-12-28T05:33:48.746Z,100.00
2022-12-28T05:36:50.272Z,100.00
2022-12-28T05:39:51.836Z,100.00
2022-12-28T05:42:53.377Z,100.00
2022-12-28T05:45:54.912Z,100.00
2022-12-28T05:48:56.640Z,100.00
2022-12-28T05:51:58.153Z,100.00
2022-12-28T05:54:59.650Z,100.00
2022-12-28T05:58:01.190Z,100.00
2022-12-28T06:01:09.372Z,100.00
2022-12-28T06:04:15.992Z,100.00
2022-12-28T06:07:17.525Z,100.00
2022-12-28T06:10:19.030Z,100.00
2022-12-28T06:13:20.562Z,100.00
2022-12-28T06:16:29.329Z,100.00
2022-12-28T06:19:30.873Z,100.00
2022-12-28T06:22:32.404Z,100.00
2022-12-28T06:25:33.959Z,100.00
2022-12-28T06:28:38.972Z,100.00
2022-12-28T06:31:43.139Z,100.00
2022-12-28T06:34:44.677Z,100.00
2022-12-28T06:37:47.798Z,100.00
2022-12-28T06:41:12.430Z,100.00
2022-12-28T06:44:11.905Z,100.00
2022-12-28T06:47:13.348Z,100.00
2022-12-28T06:50:14.887Z,100.00
2022-12-28T06:53:16.875Z,100.00
2022-12-28T06:56:20.652Z,100.00
2022-12-28T06:59:22.213Z,100.00
2022-12-28T07:02:23.894Z,100.00
2022-12-28T07:05:25.555Z,100.00
2022-12-28T07:08:27.577Z,100.00
2022-12-28T07:11:29.181Z,100.00
2022-12-28T07:14:32.289Z,100.00
2022-12-28T07:17:33.841Z,100.00
2022-12-28T07:20:40.189Z,100.00
2022-12-28T07:23:42.296Z,100.00
2022-12-28T07:26:43.832Z,100.00
2022-12-28T07:33:09.474Z,100.00
2022-12-28T07:36:15.942Z,100.00
2022-12-28T07:39:17.460Z,100.00
2022-12-28T07:42:18.999Z,100.00
2022-12-28T07:45:20.518Z,100.00
2022-12-28T07:48:22.041Z,100.00
2022-12-28T07:51:28.589Z,100.00
2022-12-28T07:54:30.115Z,100.00
2022-12-28T07:57:31.642Z,100.00
2022-12-28T08:00:33.172Z,100.00
2022-12-28T08:03:34.817Z,100.00
2022-12-28T08:06:37.826Z,100.00
2022-12-28T08:09:39.341Z,100.00
2022-12-28T08:12:40.889Z,100.00
2022-12-28T08:15:42.424Z,100.00
2022-12-28T08:18:44.025Z,100.00
2022-12-28T08:21:45.906Z,100.00
2022-12-28T08:24:47.425Z,100.00
2022-12-28T08:27:48.950Z,100.00
2022-12-28T08:30:50.493Z,100.00
2022-12-28T08:33:52.970Z,100.00
2022-12-28T08:36:55.226Z,100.00
2022-12-28T08:39:56.757Z,100.00
2022-12-28T08:43:01.499Z,100.00
2022-12-28T08:46:05.810Z,100.00
2022-12-28T08:49:07.523Z,100.00
2022-12-28T08:52:09.066Z,100.00
2022-12-28T08:55:10.566Z,100.00
2022-12-28T08:58:12.188Z,100.00
2022-12-28T09:01:14.596Z,100.00
2022-12-28T09:04:16.971Z,100.00
2022-12-28T09:07:18.504Z,100.00
2022-12-28T09:10:20.030Z,100.00
2022-12-28T09:13:21.596Z,100.00
2022-12-28T09:16:25.627Z,100.00
2022-12-28T09:19:27.173Z,100.00
2022-12-28T09:22:30.823Z,100.00
2022-12-28T09:25:32.345Z,100.00
2022-12-28T09:28:33.876Z,100.00
2022-12-28T09:31:40.241Z,100.00
2022-12-28T09:34:41.874Z,100.00
2022-12-28T09:37:43.413Z,100.00
2022-12-28T09:40:44.935Z,100.00
2022-12-28T09:43:46.467Z,100.00
2022-12-28T09:47:02.416Z,100.00
2022-12-28T09:50:16.391Z,100.00
2022-12-28T09:53:34.348Z,100.00
2022-12-28T09:56:41.132Z,100.00
2022-12-28T09:59:42.701Z,100.00
2022-12-28T10:02:45.624Z,100.00
2022-12-28T10:05:47.244Z,100.00
2022-12-28T10:09:00.144Z,100.00
2022-12-28T10:12:06.262Z,100.00
2022-12-28T10:15:12.327Z,100.00
2022-12-28T10:18:14.811Z,100.00
2022-12-28T10:21:22.338Z,100.00
2022-12-28T10:24:33.241Z,100.00
2022-12-28T10:27:34.886Z,100.00
2022-12-28T10:30:45.611Z,100.00
2022-12-28T10:33:51.180Z,100.00
2022-12-28T10:36:52.762Z,100.00
2022-12-28T10:40:16.248Z,100.00
2022-12-28T10:43:19.255Z,100.00
2022-12-28T10:46:22.562Z,100.00
2022-12-28T10:49:25.749Z,100.00
2022-12-28T10:52:27.520Z,100.00
2022-12-28T10:55:30.932Z,99.76
2022-12-28T10:58:33.350Z,93.76
2022-12-28T11:01:35.255Z,96.71
2022-12-28T11:04:36.793Z,90.81
2022-12-28T11:07:39.023Z,85.61
2022-12-28T11:10:40.578Z,88.44
2022-12-28T11:13:42.760Z,98.17
2022-12-28T11:16:44.475Z,100.00
2022-12-28T11:19:46.973Z,100.00
2022-12-28T11:22:48.587Z,100.00
2022-12-28T11:25:50.111Z,100.00
2022-12-28T11:28:51.985Z,100.00
2022-12-28T11:31:54.061Z,100.00
2022-12-28T11:34:55.671Z,100.00
2022-12-28T11:37:59.179Z,100.00
2022-12-28T11:41:00.706Z,100.00
2022-12-28T11:44:05.677Z,100.00
2022-12-28T11:47:16.221Z,100.00
2022-12-28T11:50:36.759Z,100.00
2022-12-28T11:53:47.235Z,100.00
2022-12-28T11:56:51.633Z,100.00
2022-12-28T11:59:53.162Z,100.00
2022-12-28T12:03:01.758Z,100.00
2022-12-28T12:06:03.348Z,100.00
2022-12-28T12:09:04.866Z,100.00
2022-12-28T12:12:18.066Z,100.00
2022-12-28T12:15:22.146Z,100.00
2022-12-28T12:18:24.892Z,100.00
2022-12-28T12:21:35.645Z,100.00
2022-12-28T12:24:43.120Z,100.00
2022-12-28T12:27:52.069Z,100.00
2022-12-28T12:30:53.907Z,100.00
2022-12-28T12:33:58.381Z,100.00
2022-12-28T12:37:37.061Z,100.00
2022-12-28T12:40:59.995Z,100.00
2022-12-28T12:44:34.631Z,100.00
2022-12-28T12:47:49.389Z,100.00
2022-12-28T12:51:14.541Z,100.00
2022-12-28T12:54:37.591Z,100.00
2022-12-28T12:57:49.702Z,100.00
2022-12-28T13:01:25.319Z,100.00
2022-12-28T13:04:28.575Z,100.00
2022-12-28T13:07:30.157Z,100.00
2022-12-28T13:10:33.981Z,100.00
2022-12-28T13:13:36.763Z,100.00
2022-12-28T13:16:38.295Z,100.00
2022-12-28T13:19:39.811Z,100.00
2022-12-28T13:22:45.609Z,100.00
2022-12-28T13:25:48.747Z,100.00
2022-12-28T13:28:52.271Z,100.00
2022-12-28T13:31:53.867Z,100.00
2022-12-28T13:34:55.369Z,100.00
2022-12-28T13:37:59.981Z,100.00
2022-12-28T13:41:01.544Z,100.00
2022-12-28T13:44:21.189Z,100.00
2022-12-28T13:47:33.189Z,100.00
2022-12-28T13:50:34.751Z,100.00
2022-12-28T13:53:36.285Z,100.00
2022-12-28T13:56:38.077Z,100.00
2022-12-28T13:59:39.608Z,100.00
2022-12-28T14:02:41.574Z,100.00
2022-12-28T14:05:48.247Z,100.00
2022-12-28T14:08:50.661Z,100.00
2022-12-28T14:11:52.239Z,100.00
2022-12-28T14:14:54.569Z,100.00
2022-12-28T14:17:55.976Z,100.00
2022-12-28T14:20:58.186Z,100.00
2022-12-28T14:24:10.654Z,100.00
2022-12-28T14:27:12.171Z,100.00
2022-12-28T14:30:34.363Z,100.00
2022-12-28T14:33:38.350Z,100.00
2022-12-28T14:36:43.027Z,100.00
2022-12-28T14:39:44.656Z,100.00
2022-12-28T14:42:49.491Z,100.00
2022-12-28T14:46:07.057Z,100.00
2022-12-28T14:49:30.960Z,100.00
2022-12-28T14:52:33.766Z,100.00
2022-12-28T14:55:38.206Z,100.00
2022-12-28T14:58:58.635Z,100.00
2022-12-28T15:02:00.362Z,100.00
2022-12-28T15:05:02.183Z,100.00
2022-12-28T15:08:03.830Z,100.00
2022-12-28T15:14:12.019Z,100.00
2022-12-28T15:17:13.567Z,100.00
2022-12-28T15:20:15.389Z,100.00
2022-12-28T15:23:17.016Z,100.00
2022-12-28T15:26:18.678Z,100.00
2022-12-28T15:29:39.380Z,100.00
2022-12-28T15:32:41.847Z,100.00
2022-12-28T15:35:43.371Z,100.00
2022-12-28T15:38:45.913Z,100.00
2022-12-28T15:41:47.476Z,100.00
2022-12-28T15:44:51.081Z,100.00
2022-12-28T15:47:54.235Z,100.00
2022-12-28T15:50:55.761Z,100.00
2022-12-28T15:53:57.451Z,100.00
2022-12-28T15:56:59.166Z,100.00
2022-12-28T16:00:00.800Z,100.00
2022-12-28T16:03:02.497Z,100.00
2022-12-28T16:06:05.717Z,100.00
2022-12-28T16:09:07.290Z,100.00
2022-12-28T16:12:20.057Z,100.00
2022-12-28T16:15:21.735Z,100.00
2022-12-28T16:18:23.254Z,100.00
2022-12-28T16:21:25.736Z,100.00
2022-12-28T16:24:28.981Z,100.00
2022-12-28T16:27:30.579Z,100.00
2022-12-28T16:30:32.118Z,100.00
2022-12-28T16:33:33.645Z,100.00
2022-12-28T16:36:35.235Z,100.00
2022-12-28T16:39:37.988Z,100.00
2022-12-28T16:42:39.572Z,100.00
2022-12-28T16:45:42.334Z,100.00
2022-12-28T16:48:43.954Z,100.00
2022-12-28T16:51:45.817Z,100.00
2022-12-28T16:54:47.346Z,100.00
2022-12-28T16:57:49.555Z,100.00
2022-12-28T17:00:51.087Z,100.00
2022-12-28T17:03:52.692Z,100.00
2022-12-28T17:06:54.249Z,100.00
2022-12-28T17:09:55.763Z,100.00
2022-12-28T17:12:57.309Z,100.00
2022-12-28T17:16:01.947Z,100.00
2022-12-28T17:19:03.736Z,100.00
2022-12-28T17:22:05.309Z,100.00
2022-12-28T17:25:07.677Z,100.00
2022-12-28T17:28:09.272Z,100.00
2022-12-28T17:31:14.346Z,100.00
2022-12-28T17:34:15.876Z,100.00
2022-12-28T17:37:17.749Z,100.00
2022-12-28T17:40:19.915Z,100.00
2022-12-28T17:43:21.454Z,100.00
2022-12-28T17:46:24.868Z,100.00
2022-12-28T17:49:26.591Z,100.00
2022-12-28T17:52:28.120Z,100.00
2022-12-28T17:55:29.785Z,100.00
2022-12-28T17:58:31.363Z,100.00
2022-12-28T18:01:32.969Z,100.00
2022-12-28T18:04:35.293Z,100.00
2022-12-28T18:07:36.817Z,100.00
2022-12-28T18:10:38.337Z,100.00
2022-12-28T18:13:40.436Z,100.00
2022-12-28T18:16:42.052Z,100.00
2022-12-28T18:19:43.618Z,100.00
2022-12-28T18:22:45.250Z,100.00
2022-12-28T18:25:46.760Z,100.00
2022-12-28T18:28:48.357Z,100.00
2022-12-28T18:31:49.960Z,100.00
2022-12-28T18:34:51.630Z,100.00
2022-12-28T18:37:53.408Z,100.00
2022-12-28T18:40:55.956Z,100.00
2022-12-28T18:43:59.666Z,100.00
2022-12-28T18:47:01.183Z,100.00
2022-12-28T18:50:04.876Z,100.00
2022-12-28T18:53:06.418Z,100.00
2022-12-28T18:56:18.387Z,100.00
2022-12-28T18:59:20.052Z,100.00
2022-12-28T19:02:21.658Z,100.00
2022-12-28T19:05:23.318Z,100.00
2022-12-28T19:08:25.190Z,100.00
2022-12-28T19:11:29.401Z,100.00
2022-12-28T19:14:34.322Z,100.00
2022-12-28T19:17:36.203Z,100.00
2022-12-28T19:20:37.707Z,100.00
2022-12-28T19:23:39.229Z,100.00
2022-12-28T19:26:40.800Z,100.00
2022-12-28T19:29:42.484Z,100.00
2022-12-28T19:32:44.037Z,100.00
2022-12-28T19:35:45.584Z,100.00
2022-12-28T19:38:47.522Z,100.00
2022-12-28T19:41:51.751Z,100.00
2022-12-28T19:44:53.309Z,100.00
2022-12-28T19:47:54.842Z,100.00
2022-12-28T19:50:56.401Z,100.00
2022-12-28T19:53:57.978Z,100.00
2022-12-28T19:56:59.501Z,100.00
2022-12-28T20:00:01.074Z,100.00
2022-12-28T20:03:02.700Z,100.00
2022-12-28T20:06:12.116Z,100.00
2022-12-28T20:09:13.946Z,100.00
2022-12-28T20:12:15.465Z,100.00
2022-12-28T20:15:18.533Z,100.00
2022-12-28T20:18:20.079Z,100.00
2022-12-28T20:21:22.374Z,100.00
2022-12-28T20:24:23.911Z,100.00
2022-12-28T20:27:30.387Z,100.00
2022-12-28T20:30:32.257Z,100.00
2022-12-28T20:33:36.513Z,100.00
2022-12-28T20:36:38.102Z,100.00
2022-12-28T20:39:39.684Z,100.00
2022-12-28T20:42:59.751Z,100.00
2022-12-28T20:46:01.349Z,100.00
2022-12-28T20:49:02.955Z,100.00
2022-12-28T20:52:04.594Z,100.00
2022-12-28T20:55:08.316Z,100.00
2022-12-28T20:58:09.941Z,100.00
2022-12-28T21:01:12.758Z,100.00
2022-12-28T21:04:14.421Z,100.00
2022-12-28T21:07:16.068Z,100.00
2022-12-28T21:10:17.555Z,100.00
2022-12-28T21:13:19.131Z,100.00
2022-12-28T21:16:20.689Z,100.00
2022-12-28T21:19:22.623Z,100.00
2022-12-28T21:22:24.172Z,100.00
2022-12-28T21:25:25.686Z,100.00
2022-12-28T21:28:27.261Z,100.00
2022-12-28T21:31:28.760Z,100.00
2022-12-28T21:34:30.342Z,100.00
2022-12-28T21:37:34.720Z,100.00
2022-12-28T21:40:36.257Z,100.00
2022-12-28T21:43:37.766Z,100.00
2022-12-28T21:46:39.379Z,100.00
2022-12-28T21:49:42.983Z,100.00
2022-12-28T21:52:44.569Z,100.00
2022-12-28T21:55:46.429Z,100.00
2022-12-28T21:58:48.067Z,100.00
2022-12-28T22:02:08.368Z,100.00
2022-12-28T22:05:28.710Z,100.00
2022-12-28T22:08:49.299Z,100.00
2022-12-28T22:12:09.457Z,100.00
2022-12-28T22:15:33.132Z,100.00
2022-12-28T22:19:00.804Z,100.00
2022-12-28T22:21:56.230Z,100.00
2022-12-28T22:24:57.794Z,100.00
2022-12-28T22:27:59.589Z,100.00
2022-12-28T22:31:05.299Z,100.00
2022-12-28T22:34:07.620Z,100.00
2022-12-28T22:37:09.112Z,100.00
2022-12-28T22:40:11.276Z,100.00
2022-12-28T22:43:12.803Z,100.00
2022-12-28T22:46:14.356Z,100.00
2022-12-28T22:49:16.257Z,100.00
2022-12-28T22:52:17.747Z,100.00
2022-12-28T22:55:19.295Z,100.00
2022-12-28T22:58:20.833Z,100.00
2022-12-28T23:01:22.410Z,100.00
2022-12-28T23:04:23.993Z,100.00
2022-12-28T23:07:25.521Z,100.00
2022-12-28T23:10:27.045Z,100.00
2022-12-28T23:13:28.834Z,100.00
2022-12-28T23:16:30.417Z,100.00
2022-12-28T23:19:50.591Z,100.00
2022-12-28T23:23:10.674Z,100.00
2022-12-28T23:26:30.537Z,100.00
2022-12-28T23:29:32.345Z,100.00
2022-12-28T23:32:33.887Z,100.00
2022-12-28T23:35:35.438Z,100.00
2022-12-28T23:38:37.173Z,100.00
2022-12-28T23:41:51.055Z,100.00
2022-12-28T23:44:52.789Z,100.00
2022-12-28T23:47:54.386Z,100.00
2022-12-28T23:51:08.033Z,100.00
2022-12-28T23:54:10.053Z,100.00
2022-12-28T23:57:11.579Z,100.00
